This is the latest recevied weather packets stored in our database for station/object N4TLC. If no packets are shown the sender has not sent any weather packets the latest 10 day(s).
| Time | Temp. | Humidity | Pressure | Rain* | Wind** | Luminosity | Snow |
|---|---|---|---|---|---|---|---|
| 1777795968 | 3.33° C | 87% | 1018.9 hPa | 0 mm | - | 0 W/m² | - |
| 1777795664 | 3.89° C | 86% | 1018.9 hPa | 0 mm | - | 0 W/m² | - |
| 1777795362 | 3.33° C | 87% | 1018.9 hPa | 0 mm | - | 0 W/m² | - |
| 1777795058 | 3.89° C | 87% | 1019 hPa | 0 mm | - | 0 W/m² | - |
| 1777794754 | 3.89° C | 87% | 1018.8 hPa | 0 mm | - | 0 W/m² | - |
| 1777794450 | 3.89° C | 86% | 1018.8 hPa | 0 mm | - | 0 W/m² | - |
| 1777794146 | 3.89° C | 84% | 1018.6 hPa | 0 mm | - | 0 W/m² | - |
| 1777793842 | 3.89° C | 83% | 1018.5 hPa | 0 mm | - | 0 W/m² | - |
| 1777793541 | 4.44° C | 82% | 1018.5 hPa | 0 mm | - | 0 W/m² | - |
| 1777793238 | 4.44° C | 82% | 1018.4 hPa | 0 mm | - | 0 W/m² | - |
| 1777792935 | 3.89° C | 84% | 1018.2 hPa | 0 mm | - | 0 W/m² | - |
| 1777792632 | 3.89° C | 85% | 1018.4 hPa | 0 mm | - | 0 W/m² | - |
| 1777792329 | 3.89° C | 85% | 1018.2 hPa | 0 mm | - | 0 W/m² | - |
| 1777792025 | 3.89° C | 85% | 1018.4 hPa | 0 mm | - | 0 W/m² | - |
| 1777791724 | 3.89° C | 86% | 1018.1 hPa | 0 mm | - | 0 W/m² | - |
| 1777791421 | 3.89° C | 86% | 1018.1 hPa | 0 mm | - | 0 W/m² | - |
| 1777791118 | 3.89° C | 86% | 1017.9 hPa | 0 mm | - | 0 W/m² | - |
| 1777790815 | 4.44° C | 85% | 1017.8 hPa | 0 mm | - | 0 W/m² | - |
| 1777790512 | 4.44° C | 85% | 1017.9 hPa | 0 mm | - | 0 W/m² | - |
| 1777790209 | 4.44° C | 84% | 1017.8 hPa | 0 mm | - | 0 W/m² | - |
| 1777789908 | 5° C | 82% | 1018 hPa | 0 mm | - | 0 W/m² | - |
| 1777789605 | 5° C | 80% | 1017.8 hPa | 0 mm | - | 0 W/m² | - |
| 1777789304 | 5.56° C | 79% | 1018.1 hPa | 0 mm | - | 0 W/m² | - |
| 1777789001 | 5.56° C | 76% | 1017.8 hPa | 0 mm | - | 0 W/m² | - |
| 1777788697 | 5° C | 79% | 1017.9 hPa | 0 mm | - | 0 W/m² | - |
* Rain latest hour (hover to see other rain measurements)
** Current wind speed in m/s (hover to see current wind gust speed)